Time;durP1;ratioP1;P1;durP2;ratioP2;P2;SDS_P1;SDS_P2;PMS_P1;PMS_P2;Temp;Humidity;BMP_temperature;BMP_pressure;BME280_temperature;BME280_humidity;BME280_pressure;Samples;Min_cycle;Max_cycle;Signal;HPM_P1;HPM_P2
2021/09/02 00:01:04;;;;;;;14.90;13.30;;;10.60;99.90;;;9.43;100.00;98920.31;4980823;28;20995;-78
2021/09/02 00:03:31;;;;;;;13.87;12.27;;;10.60;99.90;;;9.10;100.00;98877.50;4972021;28;20466;-78
2021/09/02 00:06:00;;;;;;;15.80;13.47;;;10.50;99.90;;;9.44;100.00;98922.81;4978620;28;20507;-78
2021/09/02 00:08:27;;;;;;;16.20;14.13;;;10.50;99.90;;;9.40;100.00;98910.75;4980758;28;20441;-78
2021/09/02 00:10:56;;;;;;;15.17;13.60;;;10.60;99.90;;;9.43;100.00;98926.56;4947862;28;20565;-78
2021/09/02 00:13:23;;;;;;;16.90;12.90;;;10.60;99.90;;;9.42;100.00;98922.19;4976598;28;20476;-78
2021/09/02 00:15:50;;;;;;;15.60;12.47;;;10.50;99.90;;;9.41;100.00;98925.06;4979461;28;20539;-78
2021/09/02 00:18:17;;;;;;;14.50;13.13;;;10.50;99.90;;;9.50;100.00;98919.38;4978802;28;20505;-78
2021/09/02 00:21:04;;;;;;;14.23;12.73;;;10.60;99.90;;;9.56;100.00;98909.69;4974647;28;20456;-78
2021/09/02 00:23:33;;;;;;;14.30;12.90;;;10.70;99.90;;;9.42;100.00;98915.94;4972727;28;20551;-78
2021/09/02 00:26:00;;;;;;;14.70;12.90;;;10.70;99.90;;;9.54;100.00;98925.25;4953958;28;20849;-78
2021/09/02 00:28:27;;;;;;;15.70;14.10;;;10.70;99.90;;;9.46;100.00;98922.63;4970185;28;20461;-78
2021/09/02 00:30:55;;;;;;;19.13;14.40;;;10.60;99.90;;;9.33;100.00;98910.66;4978638;28;20453;-78
2021/09/02 00:33:24;;;;;;;14.83;13.43;;;10.60;99.90;;;9.38;100.00;98906.53;4967015;28;20465;-79
2021/09/02 00:35:52;;;;;;;15.20;13.70;;;10.50;99.90;;;9.38;100.00;98920.03;4974461;28;20467;-78
2021/09/02 00:38:20;;;;;;;14.30;12.30;;;10.50;99.90;;;9.30;100.00;98924.47;4971333;28;20460;-78
2021/09/02 00:40:48;;;;;;;15.10;13.17;;;10.40;99.90;;;9.33;100.00;98921.44;4979205;28;20461;-78
2021/09/02 00:43:15;;;;;;;15.23;12.87;;;10.40;99.90;;;9.15;100.00;98902.06;4990290;28;20473;-78
2021/09/02 00:45:42;;;;;;;14.43;12.93;;;10.40;99.90;;;9.20;100.00;98905.88;4987192;28;20473;-78
2021/09/02 00:48:09;;;;;;;16.90;13.00;;;10.40;99.90;;;9.33;100.00;98921.44;4981733;28;20482;-78
2021/09/02 00:50:37;;;;;;;13.80;12.37;;;10.50;99.90;;;9.28;100.00;98918.44;4981965;28;20551;-79
2021/09/02 00:53:05;;;;;;;17.57;13.67;;;10.50;99.90;;;9.29;100.00;98932.78;4973210;28;20453;-78
2021/09/02 00:55:34;;;;;;;17.37;13.43;;;10.40;99.90;;;9.23;100.00;98933.50;4973450;28;20457;-78
2021/09/02 00:58:02;;;;;;;14.80;13.00;;;10.40;99.90;;;9.23;100.00;98925.41;4987995;28;20464;-79
2021/09/02 01:00:30;;;;;;;16.70;13.47;;;10.40;99.90;;;9.21;100.00;98928.31;4981132;28;20457;-79
2021/09/02 01:02:57;;;;;;;17.77;14.10;;;10.40;99.90;;;9.12;100.00;98918.59;4992967;28;20533;-78
2021/09/02 01:05:24;;;;;;;16.20;13.60;;;10.30;99.90;;;9.03;100.00;98910.63;4983205;28;20456;-78
2021/09/02 01:07:52;;;;;;;16.43;13.93;;;10.30;99.90;;;8.96;100.00;98906.97;4966383;28;20462;-78
2021/09/02 01:10:19;;;;;;;17.10;14.03;;;10.20;99.90;;;8.95;100.00;98910.69;4980168;28;20472;-78
2021/09/02 01:12:50;;;;;;;15.43;12.80;;;10.20;99.90;;;8.98;100.00;98907.63;4992399;28;20533;-78
2021/09/02 01:15:21;;;;;;;16.97;14.00;;;10.10;99.90;;;9.00;100.00;98915.53;4981410;28;20464;-78
2021/09/02 01:17:56;;;;;;;16.30;14.60;;;10.10;99.90;;;8.99;100.00;98911.97;4960582;28;20877;-78
2021/09/02 01:20:26;;;;;;;17.07;14.90;;;10.10;99.90;;;9.07;100.00;98879.56;4994155;28;20485;-78
2021/09/02 01:23:00;;;;;;;16.00;13.60;;;10.30;99.90;;;8.77;100.00;98847.19;4984376;28;20492;-78
2021/09/02 01:25:34;;;;;;;18.60;14.20;;;10.40;99.90;;;9.13;100.00;98914.88;4986155;28;20544;-78
2021/09/02 01:28:06;;;;;;;18.10;14.10;;;10.30;99.90;;;9.10;100.00;98909.88;4967949;28;20454;-78
2021/09/02 01:30:35;;;;;;;19.33;14.17;;;10.30;99.90;;;9.02;100.00;98908.94;4986239;28;20544;-78
2021/09/02 01:33:03;;;;;;;16.20;13.83;;;10.20;99.90;;;8.93;100.00;98897.38;4981968;28;20461;-78
2021/09/02 01:35:32;;;;;;;14.70;13.20;;;10.20;99.90;;;8.70;100.00;98869.66;4983201;28;20488;-79
2021/09/02 01:38:02;;;;;;;16.53;13.90;;;10.10;99.90;;;8.98;100.00;98918.41;4958691;28;20520;-78
2021/09/02 01:40:33;;;;;;;15.43;13.83;;;10.10;99.90;;;8.98;100.00;98915.69;4988746;28;20529;-77
2021/09/02 01:43:02;;;;;;;15.73;13.10;;;10.20;99.90;;;9.00;100.00;98915.53;4989373;28;20487;-78
2021/09/02 01:45:30;;;;;;;14.30;12.87;;;10.10;99.90;;;8.86;100.00;98909.06;4981180;28;20475;-77
2021/09/02 01:47:58;;;;;;;16.60;13.13;;;10.10;99.90;;;8.83;100.00;98914.81;4984447;28;20455;-79
2021/09/02 01:50:29;;;;;;;17.00;13.00;;;10.00;99.90;;;8.82;100.00;98922.09;4965086;28;20457;-79
2021/09/02 01:52:58;;;;;;;14.50;12.90;;;10.00;99.90;;;8.86;100.00;98927.94;4955272;28;20827;-80
2021/09/02 01:55:34;;;;;;;14.10;12.70;;;10.00;99.90;;;8.87;100.00;98921.53;4983105;28;20460;-80
2021/09/02 01:58:06;;;;;;;14.30;12.80;;;10.00;99.90;;;8.91;100.00;98920.16;4965506;28;20540;-79
2021/09/02 02:00:39;;;;;;;13.67;12.27;;;10.00;99.90;;;8.86;100.00;98911.75;4967000;28;21067;-79
2021/09/02 02:03:07;;;;;;;14.63;13.13;;;10.00;99.90;;;8.93;100.00;98912.72;4962239;28;21050;-80
2021/09/02 02:05:34;;;;;;;15.23;13.60;;;10.10;99.90;;;8.93;100.00;98918.13;4964220;28;20888;-79
2021/09/02 02:08:03;;;;;;;13.63;12.23;;;10.00;99.90;;;8.92;100.00;98908.34;4962539;28;20482;-79
2021/09/02 02:10:34;;;;;;;14.33;12.80;;;10.10;99.90;;;8.87;100.00;98905.34;4976590;28;20517;-79
2021/09/02 02:13:03;;;;;;;12.83;11.60;;;10.00;99.90;;;8.89;100.00;98898.78;4985018;28;20475;-79
2021/09/02 02:15:32;;;;;;;15.23;12.57;;;10.10;99.90;;;8.92;100.00;98911.06;4985720;28;21024;-79
2021/09/02 02:17:59;;;;;;;14.87;12.93;;;10.00;99.90;;;8.97;100.00;98905.13;4989840;28;20468;-79
2021/09/02 02:20:28;;;;;;;15.23;13.00;;;10.10;99.90;;;8.93;100.00;98899.25;4993507;28;20450;-79
2021/09/02 02:22:55;;;;;;;13.90;11.77;;;10.10;99.90;;;8.90;100.00;98905.00;4971890;28;20464;-79
2021/09/02 02:25:23;;;;;;;13.50;12.20;;;10.10;99.90;;;8.64;100.00;98871.22;4992571;28;20445;-79
2021/09/02 02:27:50;;;;;;;15.80;12.63;;;10.10;99.90;;;8.89;100.00;98896.06;4996235;28;20469;-78
2021/09/02 02:30:20;;;;;;;15.30;13.07;;;10.00;99.90;;;8.99;100.00;98903.91;4990222;28;20574;-79
2021/09/02 02:32:48;;;;;;;16.00;13.60;;;10.10;99.90;;;8.96;100.00;98887.28;4987918;28;20445;-79
2021/09/02 02:35:20;;;;;;;14.73;12.40;;;10.10;99.90;;;8.95;100.00;98899.06;4972441;28;20452;-79
2021/09/02 02:37:50;;;;;;;18.20;13.53;;;10.10;99.90;;;9.09;100.00;98908.19;4985697;28;20475;-79
2021/09/02 02:40:18;;;;;;;18.70;13.70;;;10.20;99.90;;;8.99;100.00;98893.13;4968100;28;20568;-79
2021/09/02 02:42:47;;;;;;;20.20;15.00;;;10.20;99.90;;;9.09;100.00;98900.09;4981476;28;20473;-79
2021/09/02 02:45:14;;;;;;;15.17;13.40;;;10.30;99.90;;;8.94;100.00;98895.53;4980627;28;20467;-79
2021/09/02 02:47:41;;;;;;;19.07;13.87;;;10.20;99.90;;;8.83;100.00;98899.50;4984540;28;20465;-79
2021/09/02 02:50:11;;;;;;;17.87;13.57;;;10.00;99.90;;;8.80;100.00;98894.50;4979044;28;20986;-79
2021/09/02 02:52:38;;;;;;;20.77;15.23;;;10.00;99.90;;;8.72;100.00;98884.63;4995259;28;20453;-79
2021/09/02 02:55:07;;;;;;;19.67;13.63;;;9.90;99.90;;;8.68;100.00;98877.91;4967333;28;20453;-79
2021/09/02 02:57:34;;;;;;;15.07;12.90;;;9.90;99.90;;;8.68;100.00;98880.59;4982177;28;20460;-78
2021/09/02 03:00:01;;;;;;;17.30;14.10;;;9.90;99.90;;;8.76;100.00;98891.31;4962249;28;20548;-78
2021/09/02 03:02:28;;;;;;;15.10;12.70;;;9.90;99.90;;;8.70;100.00;98904.69;4962630;28;20492;-78
2021/09/02 03:04:55;;;;;;;15.83;12.33;;;9.80;99.90;;;8.63;100.00;98885.72;4978288;28;20453;-79
2021/09/02 03:07:24;;;;;;;14.57;12.03;;;9.80;99.90;;;8.56;100.00;98882.06;4977052;28;20572;-78
2021/09/02 03:09:51;;;;;;;16.73;12.90;;;9.80;99.90;;;8.57;100.00;98897.19;4976642;28;20469;-79
2021/09/02 03:12:18;;;;;;;14.33;12.83;;;9.70;99.90;;;8.54;100.00;98882.25;4987505;28;20560;-79
2021/09/02 03:14:45;;;;;;;14.27;12.77;;;9.70;99.90;;;8.47;100.00;98868.63;4995339;28;20459;-78
2021/09/02 03:17:12;;;;;;;15.70;11.63;;;9.70;99.90;;;8.42;100.00;98854.88;4974480;28;20472;-79
2021/09/02 03:19:40;;;;;;;14.93;12.17;;;9.80;99.90;;;8.39;100.00;98860.59;4981477;28;20461;-78
2021/09/02 03:22:07;;;;;;;13.37;11.97;;;9.80;99.90;;;8.60;100.00;98886.91;4979382;28;20536;-79
2021/09/02 03:24:35;;;;;;;14.20;12.20;;;9.70;99.90;;;8.50;100.00;98873.69;4978751;28;20780;-79
2021/09/02 03:27:03;;;;;;;13.13;11.33;;;9.80;99.90;;;8.43;100.00;98893.41;4973124;28;20692;-77
2021/09/02 03:29:30;;;;;;;12.63;11.33;;;9.60;99.90;;;8.43;100.00;98904.19;4979752;28;20466;-79
2021/09/02 03:31:57;;;;;;;13.33;11.80;;;9.60;99.90;;;8.38;100.00;98895.81;4981066;28;20457;-79
2021/09/02 03:34:24;;;;;;;13.00;11.67;;;9.50;99.90;;;8.15;100.00;98873.25;4971384;28;20471;-78
2021/09/02 03:36:51;;;;;;;14.33;11.77;;;9.50;99.90;;;8.13;100.00;98867.22;4974231;28;20820;-78
2021/09/02 03:39:19;;;;;;;13.93;11.83;;;9.40;99.90;;;8.25;100.00;98899.94;4970960;28;20466;-78
2021/09/02 03:41:48;;;;;;;13.93;12.50;;;9.40;99.90;;;8.17;100.00;98889.22;4977393;28;20459;-78
2021/09/02 03:44:16;;;;;;;13.20;11.47;;;9.30;99.90;;;8.07;100.00;98889.44;4978572;28;20488;-79
2021/09/02 03:46:43;;;;;;;15.00;12.13;;;9.30;99.90;;;8.20;100.00;98895.06;4978744;28;20477;-79
2021/09/02 03:49:10;;;;;;;13.90;12.40;;;9.30;99.90;;;8.19;100.00;98904.19;4944332;28;20526;-79
2021/09/02 03:51:38;;;;;;;13.93;12.43;;;9.20;99.90;;;8.22;100.00;98901.13;4977963;28;20536;-78
2021/09/02 03:54:07;;;;;;;15.77;12.63;;;9.40;99.90;;;8.14;100.00;98898.50;4959696;28;20528;-80
2021/09/02 03:56:34;;;;;;;12.37;11.07;;;9.40;99.90;;;8.14;100.00;98892.25;4979316;28;20461;-79
2021/09/02 03:59:02;;;;;;;14.60;12.00;;;9.30;99.90;;;8.18;100.00;98902.50;4980008;28;20533;-78
2021/09/02 04:01:32;;;;;;;15.80;12.83;;;9.30;99.90;;;8.08;100.00;98901.88;4977508;28;20471;-79
2021/09/02 04:04:00;;;;;;;15.80;12.60;;;9.30;99.90;;;7.99;100.00;98898.41;4985346;28;20457;-79
2021/09/02 04:06:28;;;;;;;14.53;11.77;;;9.20;99.90;;;7.94;100.00;98892.72;4972945;28;20491;-79
2021/09/02 04:08:55;;;;;;;16.03;12.20;;;9.20;99.90;;;7.91;100.00;98901.16;4951396;28;20461;-78
2021/09/02 04:11:23;;;;;;;17.77;11.63;;;9.10;99.90;;;7.91;100.00;98896.59;4959466;28;20468;-79
2021/09/02 04:13:50;;;;;;;23.83;12.07;;;9.00;99.90;;;7.89;100.00;98898.63;4965183;28;20627;-79
2021/09/02 04:16:20;;;;;;;14.10;10.93;;;9.10;99.90;;;7.80;100.00;98903.22;4986318;28;20533;-78
2021/09/02 04:18:47;;;;;;;15.20;12.33;;;9.00;99.90;;;7.87;100.00;98911.44;4983397;28;20452;-78
2021/09/02 04:21:14;;;;;;;15.10;12.30;;;9.00;99.90;;;7.85;100.00;98899.16;4979238;28;20795;-78
2021/09/02 04:23:43;;;;;;;12.03;10.83;;;9.10;99.90;;;7.84;100.00;98911.78;4979826;28;20457;-78
2021/09/02 04:26:11;;;;;;;15.90;11.77;;;9.10;99.90;;;7.82;100.00;98904.88;4981381;28;20457;-79
2021/09/02 04:28:39;;;;;;;13.90;12.50;;;9.10;99.90;;;7.76;100.00;98904.59;4980664;28;20555;-79
2021/09/02 04:31:06;;;;;;;16.07;11.30;;;9.20;99.90;;;7.76;100.00;98906.44;4978011;28;20453;-78
2021/09/02 04:33:35;;;;;;;12.47;11.20;;;9.00;99.90;;;7.86;100.00;98907.06;4945747;28;20651;-78
2021/09/02 04:36:02;;;;;;;16.20;11.23;;;9.00;99.90;;;7.81;100.00;98917.53;4961945;28;20546;-77
2021/09/02 04:38:29;;;;;;;16.77;12.57;;;9.00;99.90;;;7.77;100.00;98910.78;4977101;28;20921;-77
2021/09/02 04:40:56;;;;;;;18.80;13.50;;;9.00;99.90;;;7.77;100.00;98916.19;4961177;28;20545;-77
2021/09/02 04:43:23;;;;;;;21.60;12.53;;;9.00;99.90;;;7.77;100.00;98905.41;4976578;28;20568;-78
2021/09/02 04:45:51;;;;;;;18.80;12.73;;;9.00;99.90;;;7.76;100.00;98904.59;4985559;28;20467;-78
2021/09/02 04:48:20;;;;;;;17.07;13.07;;;9.00;99.90;;;7.94;100.00;98916.94;4963430;28;20585;-78
2021/09/02 04:50:51;;;;;;;15.37;13.67;;;9.00;99.90;;;8.00;100.00;98915.41;4969906;28;20448;-77
2021/09/02 04:53:20;;;;;;;15.53;13.03;;;9.20;99.90;;;7.92;100.00;98902.84;4979796;28;20481;-78
2021/09/02 04:55:47;;;;;;;21.50;14.00;;;9.20;99.90;;;8.01;100.00;98899.06;4968981;28;20517;-78
2021/09/02 04:58:15;;;;;;;16.60;14.00;;;9.20;99.90;;;8.12;100.00;98905.91;4982378;28;20517;-78
2021/09/02 05:00:43;;;;;;;20.10;14.33;;;9.40;99.90;;;8.11;100.00;98885.38;4967255;28;20468;-78
2021/09/02 05:03:10;;;;;;;17.23;15.23;;;9.60;99.90;;;8.47;100.00;98903.66;4962593;28;20476;-79
2021/09/02 05:05:38;;;;;;;18.23;13.00;;;9.90;99.90;;;8.70;100.00;98927.06;4978650;28;20473;-78
2021/09/02 05:08:07;;;;;;;20.70;13.90;;;10.20;99.90;;;8.67;100.00;98922.03;4980886;28;20567;-79
2021/09/02 05:10:34;;;;;;;17.70;12.70;;;10.20;99.90;;;8.66;100.00;98909.59;4981057;28;20504;-78
2021/09/02 05:13:03;;;;;;;22.17;14.20;;;10.10;99.90;;;8.76;100.00;98904.78;4965874;28;20451;-78
2021/09/02 05:15:30;;;;;;;16.63;13.53;;;10.20;99.90;;;8.69;100.00;98882.28;4962494;28;20474;-79
2021/09/02 05:17:57;;;;;;;17.53;13.10;;;10.20;99.90;;;8.77;100.00;98911.84;4980990;28;20453;-78
2021/09/02 05:20:26;;;;;;;18.83;12.20;;;10.20;99.90;;;8.95;100.00;98915.22;4968366;28;20458;-79
2021/09/02 05:22:56;;;;;;;14.83;12.73;;;10.20;99.90;;;8.92;100.00;98914.56;4987239;28;20459;-79
2021/09/02 05:25:25;;;;;;;15.30;11.83;;;10.20;99.90;;;8.79;100.00;98893.66;4988511;28;20517;-79
2021/09/02 05:27:52;;;;;;;13.97;11.83;;;10.20;99.90;;;9.16;100.00;98920.75;4970070;28;20541;-79
2021/09/02 05:30:22;;;;;;;14.97;12.40;;;10.50;99.90;;;9.22;100.00;98919.19;4987233;28;21281;-79
2021/09/02 05:32:49;;;;;;;15.63;11.80;;;10.50;99.90;;;9.39;100.00;98919.81;4965472;28;20465;-78
2021/09/02 05:35:18;;;;;;;18.23;12.90;;;10.70;99.90;;;9.46;100.00;98914.53;4982460;28;20464;-78
2021/09/02 05:37:45;;;;;;;17.50;11.77;;;10.80;99.90;;;9.53;100.00;98920.88;4965809;28;20459;-78
2021/09/02 05:40:14;;;;;;;12.80;11.50;;;10.90;99.90;;;9.61;100.00;98923.44;4985241;28;20457;-78
2021/09/02 05:42:43;;;;;;;16.33;12.30;;;10.90;99.90;;;9.77;100.00;98926.97;4982857;28;20999;-79
2021/09/02 05:45:14;;;;;;;14.13;12.63;;;11.10;99.90;;;9.72;100.00;98918.63;4985868;28;20793;-79
2021/09/02 05:47:42;;;;;;;15.70;11.90;;;11.00;99.90;;;9.89;100.00;98925.47;4969627;28;20465;-79
2021/09/02 05:50:11;;;;;;;14.50;13.00;;;11.10;98.90;;;9.90;100.00;98926.31;4954837;28;20468;-79
2021/09/02 05:52:38;;;;;;;13.33;11.57;;;11.10;98.20;;;9.84;99.83;98906.31;4993803;28;21049;-79
2021/09/02 05:55:07;;;;;;;14.00;11.90;;;11.20;98.50;;;9.84;100.00;98906.31;4986368;28;20560;-79
2021/09/02 05:57:34;;;;;;;13.07;11.87;;;11.20;98.90;;;10.08;100.00;98936.69;4969172;28;20603;-78
2021/09/02 06:00:05;;;;;;;15.53;11.60;;;11.30;98.50;;;10.02;100.00;98918.56;4963541;28;20492;-79
2021/09/02 06:02:33;;;;;;;13.07;11.50;;;11.30;98.40;;;10.19;100.00;98938.91;4957566;28;20458;-79
2021/09/02 06:05:01;;;;;;;13.20;11.33;;;11.40;97.70;;;10.31;99.64;98924.91;4967969;28;20495;-79
2021/09/02 06:07:29;;;;;;;12.23;11.03;;;11.50;97.20;;;10.34;98.70;98928.06;4964338;28;20512;-79
2021/09/02 06:09:57;;;;;;;12.73;11.40;;;11.60;97.10;;;10.41;98.30;98928.19;4977829;28;20469;-79
2021/09/02 06:12:24;;;;;;;15.03;11.20;;;11.60;97.00;;;10.61;98.70;98933.78;4984992;28;20833;-78
2021/09/02 06:14:51;;;;;;;12.67;11.33;;;11.70;96.50;;;10.43;98.15;98909.06;4979698;28;20465;-79
2021/09/02 06:17:21;;;;;;;13.80;12.40;;;11.80;95.40;;;10.82;97.82;98944.75;4968688;28;20472;-79
2021/09/02 06:19:52;;;;;;;14.43;11.63;;;12.00;95.70;;;10.84;97.25;98931.88;4982029;28;20456;-78
2021/09/02 06:22:19;;;;;;;12.10;10.47;;;12.00;95.30;;;10.97;97.14;98942.81;4983021;28;20506;-80
2021/09/02 06:24:46;;;;;;;14.77;12.23;;;12.10;94.80;;;10.67;96.99;98882.69;4962582;28;20458;-78
2021/09/02 06:27:13;;;;;;;13.23;11.40;;;12.20;94.70;;;10.99;96.72;98932.63;4992354;28;20512;-79
2021/09/02 06:29:40;;;;;;;13.67;12.17;;;12.30;95.10;;;11.32;96.59;98942.88;4997791;28;20449;-79
2021/09/02 06:32:08;;;;;;;13.47;12.17;;;12.40;94.60;;;11.41;95.73;98940.00;4969111;28;20465;-79
2021/09/02 06:34:37;;;;;;;16.47;11.80;;;12.50;94.00;;;11.52;96.72;98939.47;4970892;28;20547;-79
2021/09/02 06:37:04;;;;;;;16.10;11.97;;;12.70;94.90;;;11.67;95.27;98936.63;4979396;28;20512;-79
2021/09/02 06:39:31;;;;;;;14.97;12.47;;;12.90;93.80;;;11.82;94.87;98928.38;4982430;28;20472;-79
2021/09/02 06:41:59;;;;;;;14.23;12.00;;;13.00;93.50;;;11.98;94.02;98931.78;4966049;28;20537;-79
2021/09/02 06:44:26;;;;;;;13.83;12.27;;;13.10;92.60;;;12.14;93.20;98934.16;4981029;28;20469;-80
2021/09/02 06:46:53;;;;;;;12.97;11.57;;;13.20;92.20;;;12.28;93.00;98934.19;4967261;28;20560;-78
2021/09/02 06:49:22;;;;;;;14.23;12.20;;;13.40;91.90;;;12.22;92.90;98925.00;4989771;28;20514;-79
2021/09/02 06:51:53;;;;;;;13.87;11.50;;;13.50;91.70;;;12.45;92.41;98932.78;4971938;28;20494;-79
2021/09/02 06:54:20;;;;;;;14.77;12.20;;;13.60;91.50;;;12.53;92.62;98933.63;4983769;28;20481;-79
2021/09/02 06:56:48;;;;;;;13.23;11.90;;;13.70;91.60;;;12.82;91.21;98935.13;4991205;28;20457;-79
2021/09/02 06:59:15;;;;;;;12.63;11.37;;;13.90;90.90;;;13.00;91.23;98934.50;4982835;28;20492;-79
2021/09/02 07:01:42;;;;;;;22.37;12.90;;;14.10;90.80;;;13.07;90.78;98933.66;4989540;28;20467;-79
2021/09/02 07:04:09;;;;;;;14.50;12.00;;;14.20;90.60;;;13.23;90.34;98938.66;4985472;28;20585;-79
2021/09/02 07:06:38;;;;;;;17.10;12.20;;;14.30;90.40;;;13.35;90.09;98938.03;4988642;28;20466;-78
2021/09/02 07:09:07;;;;;;;14.03;11.90;;;14.40;90.20;;;13.37;89.55;98935.94;4952243;28;20550;-79
2021/09/02 07:11:38;;;;;;;15.50;12.47;;;14.50;89.80;;;13.55;89.23;98924.44;4977753;28;20464;-79
2021/09/02 07:14:09;;;;;;;15.60;13.70;;;14.60;89.50;;;13.68;89.51;98934.44;4971911;28;20449;-78
2021/09/02 07:16:37;;;;;;;14.80;13.03;;;14.70;89.50;;;13.44;88.56;98893.38;4986023;28;20481;-78
2021/09/02 07:19:05;;;;;;;16.20;12.20;;;14.90;89.20;;;13.81;88.53;98939.81;4991086;28;20463;-79
2021/09/02 07:21:32;;;;;;;13.70;12.30;;;15.00;88.60;;;13.88;88.82;98924.34;4981870;28;20536;-78
2021/09/02 07:24:00;;;;;;;13.53;12.20;;;15.00;89.30;;;13.94;87.19;98927.25;4981980;28;20441;-79
2021/09/02 07:26:31;;;;;;;17.10;12.80;;;15.10;87.50;;;14.13;87.94;98941.81;4980358;28;20476;-79
2021/09/02 07:28:59;;;;;;;15.90;12.70;;;15.20;88.50;;;14.25;87.60;98947.38;4977981;28;20476;-78
2021/09/02 07:31:27;;;;;;;15.33;12.00;;;15.30;88.10;;;14.41;86.99;98944.16;4963128;28;20521;-79
2021/09/02 07:33:55;;;;;;;16.20;12.53;;;15.40;87.70;;;14.49;86.61;98944.97;4960207;28;20556;-79
2021/09/02 07:36:31;;;;;;;14.00;12.60;;;15.60;86.90;;;14.62;85.71;98954.91;4963773;28;20460;-79
2021/09/02 07:39:01;;;;;;;13.27;11.50;;;15.70;86.40;;;14.53;84.45;98929.88;4968068;28;20817;-80
2021/09/02 07:41:30;;;;;;;14.83;12.13;;;15.70;85.40;;;14.76;84.25;98955.69;4953073;28;20480;-80
2021/09/02 07:44:03;;;;;;;14.20;11.43;;;15.80;85.30;;;14.81;84.10;98948.53;4960642;28;20556;-79
2021/09/02 07:46:30;;;;;;;13.53;11.23;;;15.90;85.00;;;15.04;83.18;98946.28;4981338;28;20457;-79
2021/09/02 07:48:59;;;;;;;16.77;11.57;;;16.00;84.40;;;15.18;82.51;98945.09;4983129;28;20838;-79
2021/09/02 07:51:28;;;;;;;12.70;11.40;;;16.10;84.00;;;15.33;81.87;98955.66;4973931;28;20457;-80
2021/09/02 07:53:55;;;;;;;15.13;11.00;;;16.30;83.50;;;15.51;81.07;98949.38;4961142;28;20536;-80
2021/09/02 07:56:23;;;;;;;14.10;12.43;;;16.50;82.90;;;15.68;80.42;98952.38;4984596;28;20915;-79
2021/09/02 07:58:54;;;;;;;13.83;10.67;;;16.60;82.10;;;15.57;79.65;98951.22;4982531;28;20485;-81
2021/09/02 08:01:23;;;;;;;12.20;10.40;;;16.70;80.40;;;15.62;79.52;98952.44;4983731;28;20504;-80
2021/09/02 08:03:51;;;;;;;14.20;11.70;;;16.70;80.70;;;15.55;79.22;98937.00;4960034;28;20457;-80
2021/09/02 08:06:18;;;;;;;13.40;11.47;;;16.80;80.00;;;15.82;79.53;98947.59;4984425;28;20512;-80
2021/09/02 08:08:46;;;;;;;13.20;11.47;;;16.90;80.40;;;15.99;78.55;98958.75;4983457;28;20499;-80
2021/09/02 08:11:14;;;;;;;21.13;12.30;;;17.00;79.80;;;16.11;77.48;98947.09;4991302;28;20539;-80
2021/09/02 08:13:41;;;;;;;12.83;11.43;;;17.10;79.00;;;16.29;77.54;98946.22;4988043;28;20457;-80
2021/09/02 08:16:10;;;;;;;14.70;10.67;;;17.30;79.00;;;16.47;76.44;98950.00;4969347;28;20471;-79
2021/09/02 08:18:38;;;;;;;14.33;10.27;;;17.40;78.00;;;16.48;75.81;98933.38;4951319;28;20457;-80
2021/09/02 08:21:10;;;;;;;11.83;9.00;;;17.50;77.30;;;16.70;75.88;98947.31;4966183;28;20472;-80
2021/09/02 08:23:39;;;;;;;12.90;10.87;;;17.60;77.30;;;16.81;74.87;98942.94;4950563;28;20461;-80
2021/09/02 08:26:07;;;;;;;11.80;10.00;;;17.70;76.50;;;16.88;75.15;98948.31;4984541;28;20559;-80
2021/09/02 08:28:34;;;;;;;12.43;10.70;;;17.80;76.30;;;16.89;74.71;98939.06;4960204;28;20496;-80
2021/09/02 08:31:02;;;;;;;12.70;10.60;;;17.90;76.10;;;16.91;73.71;98953.31;4984671;28;20537;-80
2021/09/02 08:33:30;;;;;;;16.70;10.63;;;17.90;74.80;;;16.79;74.29;98936.09;4985015;28;20469;-81
2021/09/02 08:35:58;;;;;;;10.73;9.23;;;17.80;74.90;;;16.95;73.85;98932.66;4986138;28;20474;-80
2021/09/02 08:38:26;;;;;;;12.43;10.80;;;17.90;75.10;;;17.13;73.03;98944.59;4984178;28;20469;-81
2021/09/02 08:40:53;;;;;;;13.57;9.53;;;18.00;74.30;;;16.91;72.66;98950.59;4963913;28;20461;-81
2021/09/02 08:43:26;;;;;;;12.37;10.10;;;18.00;73.30;;;16.96;74.36;98942.53;4953953;28;20483;-81
2021/09/02 08:45:53;;;;;;;10.87;9.73;;;18.00;74.90;;;17.12;72.77;98948.41;4978696;28;20454;-81
2021/09/02 08:48:21;;;;;;;11.83;10.73;;;18.10;73.90;;;17.17;72.32;98939.50;4976801;28;20481;-79
2021/09/02 08:50:52;;;;;;;10.80;9.70;;;18.20;73.60;;;16.85;72.34;98892.31;4967049;28;20461;-79
2021/09/02 08:53:22;;;;;;;11.93;10.73;;;18.20;73.50;;;17.33;72.24;98943.41;4968644;28;20516;-80
2021/09/02 08:55:52;;;;;;;13.00;10.37;;;18.30;73.60;;;17.30;71.43;98911.13;4967762;28;20528;-79
2021/09/02 08:58:22;;;;;;;11.17;8.90;;;18.40;73.10;;;17.50;72.16;98943.53;4974084;28;20457;-79
2021/09/02 09:00:49;;;;;;;9.60;8.53;;;18.40;73.10;;;17.72;70.95;98937.44;4951864;28;20468;-79
2021/09/02 09:03:19;;;;;;;12.30;10.77;;;18.60;72.70;;;17.78;70.14;98945.50;4965943;28;20453;-79
2021/09/02 09:05:56;;;;;;;9.97;9.00;;;18.70;71.90;;;17.69;70.38;98930.56;4990246;28;20468;-80
2021/09/02 09:08:33;;;;;;;12.33;10.07;;;18.70;71.70;;;17.91;69.39;98949.91;4985072;28;20504;-78
2021/09/02 09:11:16;;;;;;;12.20;9.93;;;18.80;71.20;;;17.94;69.93;98943.94;4985396;28;20473;-79
2021/09/02 09:13:45;;;;;;;13.17;9.23;;;18.90;71.80;;;18.03;68.95;98952.63;4978059;28;20656;-79
2021/09/02 09:16:15;;;;;;;8.13;7.33;;;18.90;70.60;;;18.08;69.17;98930.84;4976691;28;20477;-80
2021/09/02 09:18:49;;;;;;;13.87;9.73;;;19.00;70.80;;;18.34;68.95;98934.09;4989462;28;20470;-80
2021/09/02 09:21:19;;;;;;;11.40;9.93;;;19.20;70.80;;;18.31;66.54;98926.38;4976283;28;20461;-78
2021/09/02 09:23:58;;;;;;;10.70;9.37;;;19.30;68.60;;;18.41;67.93;98942.97;4986672;28;20547;-79
2021/09/02 09:26:29;;;;;;;9.93;8.87;;;19.40;69.90;;;18.51;67.26;98936.91;4996461;28;20456;-79
2021/09/02 09:28:58;;;;;;;12.80;10.63;;;19.40;69.40;;;18.59;67.62;98952.09;4983595;28;20843;-79
2021/09/02 09:31:34;;;;;;;9.03;8.00;;;19.50;69.50;;;18.51;66.69;98936.91;4985349;28;20563;-79
2021/09/02 09:34:06;;;;;;;10.17;9.10;;;19.50;68.40;;;18.60;66.14;98915.44;4973962;28;20461;-80
2021/09/02 09:36:38;;;;;;;8.80;7.90;;;19.60;68.50;;;18.75;65.91;98930.47;4960626;28;20533;-79
2021/09/02 09:39:09;;;;;;;10.13;9.10;;;19.60;68.00;;;18.80;66.35;98922.34;4971939;28;20477;-78
2021/09/02 09:41:41;;;;;;;9.80;7.37;;;19.70;68.40;;;18.81;65.71;98929.47;4984173;28;20945;-80
2021/09/02 09:47:12;;;;;;;9.33;8.40;;;19.70;67.60;;;18.85;65.60;98936.09;4984878;28;20457;-79
2021/09/02 09:49:50;;;;;;;8.07;7.27;;;19.70;67.70;;;19.04;64.60;98934.00;4982616;28;20528;-79
2021/09/02 09:52:31;;;;;;;8.43;7.57;;;19.90;67.20;;;19.09;64.03;98911.34;4984525;28;20461;-79
2021/09/02 09:55:06;;;;;;;8.90;8.03;;;20.00;66.60;;;19.33;63.25;98933.03;4970839;28;20456;-80
2021/09/02 09:57:39;;;;;;;8.80;7.90;;;20.20;66.10;;;19.42;61.90;98928.81;4981508;28;20463;-80
2021/09/02 10:00:14;;;;;;;9.30;8.10;;;20.30;65.30;;;19.28;62.37;98895.47;4971035;28;20453;-79
2021/09/02 10:02:49;;;;;;;11.47;8.27;;;20.30;65.30;;;19.59;62.79;98917.81;4995293;28;20459;-79
2021/09/02 10:05:21;;;;;;;9.37;6.63;;;20.40;65.60;;;19.64;61.23;98920.63;4984381;28;20463;-80
2021/09/02 10:08:06;;;;;;;7.43;6.73;;;20.50;64.50;;;19.58;61.00;98912.59;4974951;28;20466;-79
2021/09/02 10:10:36;;;;;;;8.37;7.57;;;20.50;64.20;;;19.66;60.72;98909.44;4984854;28;20492;-80
2021/09/02 10:13:04;;;;;;;7.80;7.10;;;20.60;64.10;;;19.68;60.22;98893.56;4986822;28;20555;-80
2021/09/02 10:15:38;;;;;;;8.63;7.83;;;20.60;63.70;;;19.95;60.30;98915.56;4981837;28;20945;-80
2021/09/02 10:18:05;;;;;;;9.30;7.63;;;20.70;63.80;;;20.14;60.20;98901.53;4983109;28;20453;-79